Time;durP1;ratioP1;P1;durP2;ratioP2;P2;SDS_P1;SDS_P2;PMS_P1;PMS_P2;Temp;Humidity;BMP_temperature;BMP_pressure;BME280_temperature;BME280_humidity;BME280_pressure;Samples;Min_cycle;Max_cycle;Signal;HPM_P1;HPM_P2
2023/11/16 00:01:49;;;;;;;15.13;5.80;;;15.10;60.80;;;;;;5043538;28;20514;-51
2023/11/16 00:04:15;;;;;;;8.63;2.93;;;15.20;61.00;;;;;;5041432;28;20867;-54
2023/11/16 00:06:42;;;;;;;3.30;2.27;;;15.20;61.20;;;;;;5038300;28;20267;-50
2023/11/16 00:09:08;;;;;;;4.17;2.40;;;15.10;61.10;;;;;;5039258;28;20463;-51
2023/11/16 00:11:33;;;;;;;5.37;2.20;;;15.20;61.50;;;;;;5036430;28;20795;-49
2023/11/16 00:13:59;;;;;;;6.40;3.27;;;15.10;61.40;;;;;;5043465;28;20435;-52
2023/11/16 00:16:25;;;;;;;10.33;6.20;;;15.10;61.70;;;;;;5040707;28;20182;-48
2023/11/16 00:18:53;;;;;;;9.03;4.50;;;15.10;62.10;;;;;;5036655;28;20234;-54
2023/11/16 00:21:19;;;;;;;7.90;4.00;;;15.10;62.30;;;;;;5041828;28;20184;-48
2023/11/16 00:23:44;;;;;;;3.90;2.40;;;15.10;62.30;;;;;;5043825;28;20449;-49
2023/11/16 00:26:11;;;;;;;5.63;3.07;;;15.10;62.00;;;;;;5042959;28;20181;-52
2023/11/16 00:28:37;;;;;;;4.97;2.20;;;15.00;61.70;;;;;;5043794;28;20212;-51
2023/11/16 00:31:03;;;;;;;5.97;1.97;;;15.00;60.90;;;;;;5044313;28;20427;-50
2023/11/16 00:33:29;;;;;;;3.73;2.23;;;15.00;60.40;;;;;;5040656;28;21039;-50
2023/11/16 00:35:58;;;;;;;3.73;2.10;;;15.00;60.00;;;;;;5043735;28;20430;-48
2023/11/16 00:38:27;;;;;;;4.57;1.87;;;15.10;60.30;;;;;;5040928;28;20481;-49
2023/11/16 00:40:55;;;;;;;5.77;1.73;;;15.00;60.70;;;;;;5045752;28;20431;-48
2023/11/16 00:43:21;;;;;;;3.43;1.83;;;15.00;60.90;;;;;;5042563;28;20522;-48
2023/11/16 00:45:46;;;;;;;3.90;1.73;;;15.00;60.80;;;;;;5043032;28;20597;-52
2023/11/16 00:48:12;;;;;;;3.33;1.90;;;15.00;60.80;;;;;;5045650;28;20188;-51
2023/11/16 00:50:37;;;;;;;3.30;1.63;;;15.00;60.80;;;;;;5042631;28;20172;-51
2023/11/16 00:53:03;;;;;;;5.93;1.83;;;15.00;60.80;;;;;;5043510;28;20323;-52
2023/11/16 00:55:31;;;;;;;4.57;1.57;;;15.00;60.70;;;;;;5038911;28;20270;-51
2023/11/16 00:57:57;;;;;;;3.60;1.80;;;15.00;60.80;;;;;;5036661;28;20232;-53
2023/11/16 01:00:26;;;;;;;3.70;1.70;;;15.00;60.70;;;;;;5037025;28;20452;-52
2023/11/16 01:02:52;;;;;;;5.33;1.90;;;15.00;60.50;;;;;;5042632;28;20524;-51
2023/11/16 01:05:17;;;;;;;2.70;1.70;;;15.00;60.50;;;;;;5042234;28;20470;-50
2023/11/16 01:07:44;;;;;;;3.53;1.53;;;15.10;60.40;;;;;;5042363;28;20272;-50
2023/11/16 01:10:15;;;;;;;2.77;1.83;;;15.10;60.50;;;;;;5043098;28;20610;-50
2023/11/16 01:12:43;;;;;;;4.40;1.83;;;15.10;60.40;;;;;;5043617;28;20443;-49
2023/11/16 01:15:10;;;;;;;2.33;1.80;;;15.10;60.50;;;;;;5038892;28;20455;-47
2023/11/16 01:17:38;;;;;;;5.03;2.07;;;15.20;60.80;;;;;;5044380;28;20937;-52
2023/11/16 01:20:07;;;;;;;4.40;1.90;;;15.10;60.70;;;;;;5037923;28;20503;-50
2023/11/16 01:22:40;;;;;;;1.70;1.60;;;15.10;60.90;;;;;;5036907;28;20443;-50
2023/11/16 01:25:15;;;;;;;2.40;1.50;;;15.10;61.00;;;;;;5041364;28;20528;-52
2023/11/16 01:27:44;;;;;;;4.40;2.07;;;15.10;61.10;;;;;;5043809;28;20438;-50
2023/11/16 01:30:12;;;;;;;3.23;1.83;;;15.10;61.30;;;;;;5043042;28;20498;-49
2023/11/16 01:32:37;;;;;;;8.83;2.53;;;15.10;61.50;;;;;;5040718;28;20443;-50
2023/11/16 01:35:04;;;;;;;4.33;3.07;;;15.10;61.50;;;;;;5043290;28;20443;-49
2023/11/16 01:37:30;;;;;;;5.17;2.47;;;15.00;61.50;;;;;;5038556;28;20196;-50
2023/11/16 01:39:57;;;;;;;4.93;2.60;;;15.00;61.50;;;;;;5044423;28;20457;-49
2023/11/16 01:42:22;;;;;;;4.03;2.67;;;15.00;61.40;;;;;;5040355;28;20459;-50
2023/11/16 01:44:48;;;;;;;4.20;2.20;;;14.90;61.20;;;;;;5037050;28;20457;-50
2023/11/16 01:47:14;;;;;;;4.93;2.40;;;15.00;61.40;;;;;;5043254;28;20654;-49
2023/11/16 01:49:42;;;;;;;2.83;2.10;;;15.00;61.50;;;;;;5037224;28;20738;-51
2023/11/16 01:52:09;;;;;;;4.97;2.87;;;15.00;61.70;;;;;;5037724;28;20567;-47
2023/11/16 01:54:36;;;;;;;5.47;2.10;;;15.00;62.20;;;;;;5044149;28;20443;-50
2023/11/16 01:57:03;;;;;;;1.90;1.70;;;15.00;62.40;;;;;;5042387;28;21044;-49
2023/11/16 01:59:31;;;;;;;3.87;2.30;;;14.80;61.20;;;;;;5043466;28;20506;-50
2023/11/16 02:01:57;;;;;;;4.53;2.10;;;14.80;61.60;;;;;;5037813;28;20444;-50
2023/11/16 02:04:23;;;;;;;6.07;1.97;;;14.90;61.50;;;;;;5042886;28;20440;-50
2023/11/16 02:06:49;;;;;;;4.27;1.93;;;14.90;61.30;;;;;;5038186;28;20445;-52
2023/11/16 02:09:15;;;;;;;1.90;1.70;;;14.90;61.40;;;;;;5038713;28;20460;-50
2023/11/16 02:11:41;;;;;;;3.30;2.13;;;14.90;61.60;;;;;;5039599;28;20447;-48
2023/11/16 02:14:06;;;;;;;3.77;2.27;;;14.90;61.80;;;;;;5037902;28;20188;-47
2023/11/16 02:16:32;;;;;;;5.27;2.77;;;14.90;61.90;;;;;;5043040;28;20188;-48
2023/11/16 02:19:35;;;;;;;6.90;2.27;;;14.90;62.00;;;;;;5039399;28;20220;-51
2023/11/16 02:22:02;;;;;;;4.57;2.47;;;14.90;62.00;;;;;;5033200;28;20453;-50
2023/11/16 02:24:28;;;;;;;4.67;2.50;;;14.90;61.80;;;;;;5039876;28;20452;-49
2023/11/16 02:26:54;;;;;;;3.87;2.20;;;14.90;61.90;;;;;;5035374;28;20439;-52
2023/11/16 02:29:19;;;;;;;5.60;2.57;;;14.90;62.10;;;;;;5038022;28;20215;-50
2023/11/16 02:31:45;;;;;;;5.43;2.73;;;14.90;62.40;;;;;;5041168;28;20817;-49
2023/11/16 02:34:11;;;;;;;3.90;2.17;;;14.90;62.70;;;;;;5036468;28;20212;-48
2023/11/16 02:36:36;;;;;;;4.57;2.00;;;14.90;63.00;;;;;;5044879;28;20196;-51
2023/11/16 02:39:03;;;;;;;4.57;2.10;;;14.80;63.20;;;;;;5039764;28;20221;-52
2023/11/16 02:41:32;;;;;;;3.20;2.10;;;14.80;63.20;;;;;;5036448;28;20262;-49
2023/11/16 02:43:57;;;;;;;4.17;2.33;;;14.80;63.30;;;;;;5042022;28;20541;-50
2023/11/16 02:46:23;;;;;;;3.80;1.87;;;14.80;63.50;;;;;;5038727;28;20953;-50
2023/11/16 02:48:48;;;;;;;3.63;1.80;;;14.80;63.80;;;;;;5042473;28;20212;-50
2023/11/16 02:51:14;;;;;;;2.27;1.50;;;14.80;63.90;;;;;;5043295;28;20181;-52
2023/11/16 02:53:41;;;;;;;2.37;1.40;;;14.80;64.00;;;;;;5038328;28;20196;-52
2023/11/16 02:56:08;;;;;;;7.10;2.13;;;14.80;64.00;;;;;;5039699;28;20454;-50
2023/11/16 02:58:34;;;;;;;4.03;1.33;;;14.70;63.90;;;;;;5041864;28;20533;-44
2023/11/16 03:01:02;;;;;;;3.67;1.97;;;14.70;64.20;;;;;;5040727;28;20446;-50
2023/11/16 03:03:28;;;;;;;2.50;1.60;;;14.70;64.40;;;;;;5041178;28;20219;-52
2023/11/16 03:05:53;;;;;;;6.23;2.07;;;14.70;64.50;;;;;;5043498;28;20518;-50
2023/11/16 03:08:19;;;;;;;4.60;1.80;;;14.70;64.40;;;;;;5037920;28;20192;-49
2023/11/16 03:10:44;;;;;;;3.73;1.73;;;14.70;64.40;;;;;;5045508;28;20189;-50
2023/11/16 03:13:16;;;;;;;3.40;1.70;;;14.60;64.30;;;;;;5042409;28;20184;-50
2023/11/16 03:15:42;;;;;;;4.50;1.93;;;14.60;64.60;;;;;;5036616;28;20238;-50
2023/11/16 03:18:08;;;;;;;8.60;5.10;;;14.70;64.60;;;;;;5044712;28;20543;-50
2023/11/16 03:20:34;;;;;;;5.77;3.40;;;14.70;64.60;;;;;;5042973;28;20525;-48
2023/11/16 03:22:59;;;;;;;4.10;2.17;;;14.70;64.60;;;;;;5043537;28;20572;-48
2023/11/16 03:25:26;;;;;;;5.80;2.43;;;14.70;64.60;;;;;;5042756;28;20430;-48
2023/11/16 03:27:52;;;;;;;3.80;2.03;;;14.70;64.60;;;;;;5044012;28;20176;-48
2023/11/16 03:30:17;;;;;;;4.10;1.60;;;14.70;64.80;;;;;;5036728;28;20482;-52
2023/11/16 03:32:46;;;;;;;4.53;2.00;;;14.80;64.90;;;;;;5040205;28;20231;-50
2023/11/16 03:35:13;;;;;;;4.73;2.07;;;14.70;65.10;;;;;;5040381;28;20261;-49
2023/11/16 03:37:42;;;;;;;3.17;2.30;;;14.70;65.10;;;;;;5046623;28;20434;-49
2023/11/16 03:40:08;;;;;;;6.10;2.53;;;14.60;65.20;;;;;;5042405;28;20450;-48
2023/11/16 03:42:34;;;;;;;4.70;2.23;;;14.60;65.40;;;;;;5037449;28;20452;-49
2023/11/16 03:44:59;;;;;;;2.70;1.80;;;14.50;65.40;;;;;;5039715;28;20455;-50
2023/11/16 03:47:25;;;;;;;4.43;2.10;;;14.50;65.50;;;;;;5042338;28;21090;-49
2023/11/16 03:49:51;;;;;;;4.10;2.30;;;14.40;65.30;;;;;;5043858;28;20592;-50
2023/11/16 03:52:16;;;;;;;4.70;3.40;;;14.20;66.80;;;;;;5043806;28;20213;-49
2023/11/16 03:54:44;;;;;;;3.20;2.30;;;14.10;66.50;;;;;;5040289;28;20205;-51
2023/11/16 03:57:11;;;;;;;8.97;3.10;;;14.10;66.50;;;;;;5045656;28;20268;-51
2023/11/16 03:59:37;;;;;;;2.67;2.43;;;14.20;66.50;;;;;;5048466;28;20483;-49
2023/11/16 04:02:04;;;;;;;2.30;2.10;;;14.20;66.10;;;;;;5043900;28;20487;-51
2023/11/16 04:04:30;;;;;;;4.20;1.80;;;14.30;66.10;;;;;;5043865;28;20458;-53
2023/11/16 04:06:55;;;;;;;3.10;1.80;;;14.40;65.90;;;;;;5041370;28;21202;-49
2023/11/16 04:09:21;;;;;;;2.57;1.87;;;14.40;65.70;;;;;;5041482;28;20209;-49
2023/11/16 04:11:47;;;;;;;4.90;1.83;;;14.40;65.60;;;;;;5046627;28;20196;-49
2023/11/16 04:14:16;;;;;;;4.50;2.30;;;14.50;65.80;;;;;;5047492;28;20736;-50
2023/11/16 04:16:42;;;;;;;7.07;1.93;;;14.50;65.80;;;;;;5043838;28;20192;-51
2023/11/16 04:19:09;;;;;;;8.40;1.90;;;14.50;65.80;;;;;;5039668;28;20535;-49
2023/11/16 04:21:36;;;;;;;1.83;1.40;;;14.50;65.60;;;;;;5041773;28;20443;-52
2023/11/16 04:24:08;;;;;;;8.40;1.83;;;14.50;65.50;;;;;;5043167;28;20430;-47
2023/11/16 04:26:37;;;;;;;2.03;1.90;;;14.50;65.30;;;;;;5042945;28;20465;-49
2023/11/16 04:29:06;;;;;;;9.60;2.77;;;14.50;64.90;;;;;;5045789;28;20462;-50
2023/11/16 04:31:35;;;;;;;5.00;1.90;;;14.50;64.80;;;;;;5045067;28;20450;-48
2023/11/16 04:34:01;;;;;;;4.13;2.13;;;14.40;64.80;;;;;;5044248;28;20911;-48
2023/11/16 04:36:30;;;;;;;3.63;1.80;;;14.40;64.70;;;;;;5039696;28;20492;-51
2023/11/16 04:38:56;;;;;;;3.10;1.90;;;14.40;64.50;;;;;;5038488;28;20489;-53
2023/11/16 04:41:23;;;;;;;4.20;2.30;;;14.40;64.50;;;;;;5042041;28;20471;-50
2023/11/16 04:43:49;;;;;;;4.50;1.90;;;14.40;64.40;;;;;;5039440;28;20419;-50
2023/11/16 04:46:15;;;;;;;3.57;1.87;;;14.50;64.50;;;;;;5047558;28;20504;-49
2023/11/16 04:48:43;;;;;;;4.00;2.00;;;14.40;64.30;;;;;;5044172;28;20274;-47
2023/11/16 04:51:09;;;;;;;4.43;2.50;;;14.40;64.40;;;;;;5043358;28;20427;-49
2023/11/16 04:53:36;;;;;;;8.37;2.93;;;14.40;64.50;;;;;;5039128;28;20592;-47
2023/11/16 04:56:03;;;;;;;4.13;2.47;;;14.50;64.50;;;;;;5039232;28;20423;-47
2023/11/16 04:58:28;;;;;;;4.17;3.30;;;14.50;64.50;;;;;;5036058;28;20541;-48
2023/11/16 05:00:54;;;;;;;3.97;2.80;;;14.50;64.50;;;;;;5042916;28;20459;-51
2023/11/16 05:03:21;;;;;;;3.33;2.47;;;14.50;64.50;;;;;;5041535;28;20215;-49
2023/11/16 05:05:47;;;;;;;4.63;2.20;;;14.50;64.50;;;;;;5036634;28;20227;-48
2023/11/16 05:08:13;;;;;;;3.90;1.93;;;14.60;64.40;;;;;;5041380;28;20488;-47
2023/11/16 05:10:39;;;;;;;3.67;2.10;;;14.60;64.20;;;;;;5044586;28;20443;-46
2023/11/16 05:13:05;;;;;;;6.20;2.20;;;14.50;64.30;;;;;;5042000;28;20193;-48
2023/11/16 05:15:30;;;;;;;3.10;2.10;;;14.50;64.60;;;;;;5041234;28;20957;-48
2023/11/16 05:17:56;;;;;;;4.27;2.47;;;14.50;64.70;;;;;;5037581;28;20668;-47
2023/11/16 05:20:21;;;;;;;2.50;1.90;;;14.50;64.60;;;;;;5037671;28;20211;-49
2023/11/16 05:22:49;;;;;;;4.47;1.80;;;14.50;64.60;;;;;;5040474;28;20833;-50
2023/11/16 05:25:15;;;;;;;6.30;2.17;;;14.50;64.60;;;;;;5040411;28;20684;-47
2023/11/16 05:27:40;;;;;;;4.73;2.17;;;14.40;64.60;;;;;;5040534;28;20442;-48
2023/11/16 05:30:07;;;;;;;6.50;2.30;;;14.40;64.60;;;;;;5041839;28;20451;-50
2023/11/16 05:32:33;;;;;;;5.33;2.70;;;14.40;64.40;;;;;;5046474;28;20506;-50
2023/11/16 05:34:59;;;;;;;8.50;3.30;;;14.40;64.10;;;;;;5042354;28;20480;-47
2023/11/16 05:37:25;;;;;;;4.17;2.47;;;14.40;63.90;;;;;;5041046;28;20181;-47
2023/11/16 05:39:50;;;;;;;5.20;2.70;;;14.40;64.00;;;;;;5041482;28;20585;-49
2023/11/16 05:42:17;;;;;;;5.30;2.63;;;14.50;64.10;;;;;;5036616;28;20224;-51
2023/11/16 05:44:44;;;;;;;6.43;3.10;;;14.40;64.00;;;;;;5041773;28;20180;-52
2023/11/16 05:47:11;;;;;;;7.37;3.50;;;14.40;64.20;;;;;;5039236;28;20447;-50
2023/11/16 05:49:36;;;;;;;7.30;3.40;;;14.40;64.10;;;;;;5042894;28;20494;-49
2023/11/16 05:52:02;;;;;;;8.40;3.50;;;14.20;64.80;;;;;;5041829;28;20470;-52
2023/11/16 05:54:28;;;;;;;6.10;3.50;;;14.20;65.00;;;;;;5041551;28;20996;-48
2023/11/16 05:56:54;;;;;;;5.27;3.40;;;14.20;65.10;;;;;;5042540;28;20466;-47
2023/11/16 05:59:21;;;;;;;5.20;3.10;;;14.20;65.20;;;;;;5035477;28;20217;-50
2023/11/16 06:01:47;;;;;;;4.77;2.77;;;14.10;65.40;;;;;;5044926;28;20446;-48
2023/11/16 06:04:12;;;;;;;3.77;2.37;;;14.00;65.90;;;;;;5039685;28;20922;-51
2023/11/16 06:06:38;;;;;;;4.50;2.50;;;13.80;66.70;;;;;;5044420;28;20486;-48
2023/11/16 06:09:05;;;;;;;4.63;2.93;;;13.90;67.00;;;;;;5040205;28;20224;-49
2023/11/16 06:11:31;;;;;;;6.00;3.23;;;13.80;67.00;;;;;;5045342;28;20237;-49
2023/11/16 06:13:56;;;;;;;6.40;2.60;;;13.80;67.10;;;;;;5040873;28;20439;-51
2023/11/16 06:16:22;;;;;;;4.17;2.80;;;13.80;67.10;;;;;;5038222;28;20463;-48
2023/11/16 06:18:49;;;;;;;3.90;2.50;;;13.80;67.10;;;;;;5038305;28;20220;-49
2023/11/16 06:21:15;;;;;;;4.00;2.50;;;13.90;66.70;;;;;;5037710;28;20547;-51
2023/11/16 06:23:40;;;;;;;5.90;2.27;;;14.00;66.20;;;;;;5039394;28;20617;-48
2023/11/16 06:26:06;;;;;;;5.33;2.17;;;14.10;66.00;;;;;;5041218;28;20227;-49
2023/11/16 06:28:32;;;;;;;9.80;2.30;;;14.10;67.10;;;;;;5036642;28;20459;-50
2023/11/16 06:30:58;;;;;;;4.37;2.17;;;14.20;66.80;;;;;;5041647;28;20969;-50
2023/11/16 06:33:23;;;;;;;7.27;3.17;;;14.40;66.20;;;;;;5034623;28;20188;-50
2023/11/16 06:35:49;;;;;;;10.90;3.47;;;14.40;64.70;;;;;;5036775;28;20193;-52
2023/11/16 06:38:16;;;;;;;6.67;3.40;;;14.60;64.40;;;;;;5043259;28;20231;-50
2023/11/16 06:40:41;;;;;;;3.73;2.23;;;14.70;63.40;;;;;;5037788;28;20192;-48
2023/11/16 06:43:10;;;;;;;5.30;2.90;;;14.80;63.60;;;;;;5041404;28;20438;-48
2023/11/16 06:45:40;;;;;;;3.90;2.40;;;14.90;62.70;;;;;;5038517;28;20188;-51
2023/11/16 06:48:07;;;;;;;6.50;2.33;;;14.80;62.80;;;;;;5037732;28;20440;-49
2023/11/16 06:50:36;;;;;;;2.97;2.00;;;14.90;61.80;;;;;;5046144;28;21041;-47
2023/11/16 06:53:04;;;;;;;3.90;2.50;;;14.80;61.30;;;;;;5044614;28;20454;-51
2023/11/16 06:55:32;;;;;;;5.93;2.70;;;14.90;61.20;;;;;;5045165;28;20481;-49
2023/11/16 06:57:58;;;;;;;3.17;2.43;;;15.00;61.00;;;;;;5039605;28;21183;-48
2023/11/16 07:00:26;;;;;;;2.80;2.23;;;15.10;60.50;;;;;;5046341;28;20506;-49
2023/11/16 07:02:51;;;;;;;2.73;1.77;;;15.10;60.20;;;;;;5049566;28;21133;-54
2023/11/16 07:05:17;;;;;;;4.17;3.00;;;15.10;60.10;;;;;;5046032;28;20439;-50
2023/11/16 07:07:45;;;;;;;6.30;3.20;;;15.20;59.90;;;;;;5043651;28;20953;-50
2023/11/16 07:10:11;;;;;;;9.40;2.73;;;15.20;59.70;;;;;;5042379;28;20453;-51
2023/11/16 07:12:41;;;;;;;4.33;2.87;;;15.20;59.70;;;;;;5042866;28;20430;-49
2023/11/16 07:15:08;;;;;;;12.57;3.63;;;15.20;59.70;;;;;;5053654;28;21111;-51
2023/11/16 07:17:34;;;;;;;4.43;3.20;;;15.20;59.50;;;;;;5039819;28;20443;-52
2023/11/16 07:19:59;;;;;;;3.60;2.77;;;15.20;59.50;;;;;;5042134;28;20484;-53
2023/11/16 07:22:29;;;;;;;3.73;2.53;;;15.30;59.50;;;;;;5043197;28;20189;-50
2023/11/16 07:24:55;;;;;;;9.23;3.30;;;15.30;59.50;;;;;;5038907;28;20197;-54
2023/11/16 07:27:22;;;;;;;8.47;2.80;;;15.30;59.30;;;;;;5045930;28;20435;-51
2023/11/16 07:29:48;;;;;;;4.90;2.80;;;15.30;59.30;;;;;;5042302;28;20454;-54
2023/11/16 07:32:15;;;;;;;4.97;2.90;;;15.30;59.10;;;;;;5039641;28;21089;-53
2023/11/16 07:34:41;;;;;;;3.90;2.37;;;15.30;59.10;;;;;;5049492;28;20238;-51
2023/11/16 07:37:07;;;;;;;6.07;3.00;;;15.20;58.90;;;;;;5039265;28;20477;-52
2023/11/16 07:39:34;;;;;;;6.23;3.23;;;15.20;58.90;;;;;;5041678;28;20479;-52
2023/11/16 07:42:00;;;;;;;4.23;3.00;;;15.30;58.90;;;;;;5038579;28;20473;-51
2023/11/16 07:44:27;;;;;;;7.80;3.20;;;15.30;58.70;;;;;;5043429;28;20938;-52
2023/11/16 07:46:53;;;;;;;5.63;2.87;;;15.40;58.70;;;;;;5043620;28;20982;-49
2023/11/16 07:49:18;;;;;;;4.73;2.63;;;15.30;58.70;;;;;;5045644;28;20477;-50
2023/11/16 07:51:45;;;;;;;4.87;2.83;;;15.30;59.10;;;;;;5035503;28;20435;-52
2023/11/16 07:54:11;;;;;;;6.60;3.93;;;15.30;59.30;;;;;;5039352;28;20184;-48
2023/11/16 07:56:49;;;;;;;5.67;3.30;;;15.30;59.40;;;;;;5044642;28;20432;-52
2023/11/16 07:59:18;;;;;;;5.17;2.70;;;15.30;59.40;;;;;;5041729;28;20223;-49
2023/11/16 08:01:50;;;;;;;9.17;3.30;;;15.40;59.40;;;;;;5041298;28;20464;-51
2023/11/16 08:04:16;;;;;;;7.20;3.30;;;15.40;59.40;;;;;;5046006;28;20435;-50
2023/11/16 08:06:43;;;;;;;9.87;4.43;;;15.50;59.50;;;;;;5035249;28;20866;-50
2023/11/16 08:09:09;;;;;;;7.23;3.60;;;15.60;59.50;;;;;;5046557;28;20463;-50
2023/11/16 08:11:36;;;;;;;5.90;3.47;;;15.60;59.10;;;;;;5043158;28;20451;-49
2023/11/16 08:14:06;;;;;;;5.00;2.97;;;15.50;59.10;;;;;;5042172;28;20431;-51
2023/11/16 08:16:34;;;;;;;4.77;2.90;;;15.50;59.60;;;;;;5042643;28;20446;-49
2023/11/16 08:19:02;;;;;;;5.37;3.40;;;15.30;59.80;;;;;;5042284;28;20828;-51
2023/11/16 08:21:28;;;;;;;5.50;2.87;;;15.30;60.20;;;;;;5038692;28;20563;-51
2023/11/16 08:23:55;;;;;;;3.33;2.37;;;15.40;60.30;;;;;;5035786;28;20585;-52
2023/11/16 08:26:20;;;;;;;3.00;2.50;;;15.40;60.00;;;;;;5044364;28;20203;-51
2023/11/16 08:28:48;;;;;;;3.77;3.03;;;15.50;59.80;;;;;;5047869;28;20471;-48
2023/11/16 08:31:14;;;;;;;5.57;2.53;;;15.50;59.90;;;;;;5038789;28;20185;-49
2023/11/16 08:33:41;;;;;;;6.67;3.00;;;15.50;60.40;;;;;;5037999;28;21156;-51
2023/11/16 08:36:08;;;;;;;8.37;2.90;;;15.40;60.70;;;;;;5045499;28;20439;-50
2023/11/16 08:38:39;;;;;;;4.43;2.60;;;15.50;60.80;;;;;;5029133;28;20897;-51
2023/11/16 08:41:05;;;;;;;4.03;2.80;;;15.30;60.90;;;;;;5045537;28;20442;-51
2023/11/16 08:43:32;;;;;;;5.40;2.73;;;15.30;60.80;;;;;;5043904;28;20443;-47
2023/11/16 08:45:58;;;;;;;4.53;2.57;;;15.30;60.50;;;;;;5041086;28;20443;-51
2023/11/16 08:48:31;;;;;;;6.27;3.10;;;15.30;60.50;;;;;;5040340;28;20455;-49
2023/11/16 08:51:03;;;;;;;6.17;3.37;;;15.50;60.50;;;;;;5043193;28;21045;-50
2023/11/16 08:53:30;;;;;;;5.83;2.90;;;15.40;60.40;;;;;;5044400;28;20442;-51
2023/11/16 08:56:02;;;;;;;5.60;3.20;;;15.40;60.70;;;;;;5038238;28;20828;-50
2023/11/16 08:58:31;;;;;;;9.37;4.67;;;15.50;60.50;;;;;;5038695;28;20494;-47
2023/11/16 09:01:03;;;;;;;5.60;4.63;;;15.60;60.20;;;;;;5046285;28;21097;-50
2023/11/16 09:03:30;;;;;;;6.20;4.23;;;15.70;59.90;;;;;;5035158;28;20443;-50
2023/11/16 09:05:56;;;;;;;4.37;3.20;;;15.70;59.90;;;;;;5038503;28;20479;-49
2023/11/16 09:08:23;;;;;;;3.27;2.70;;;15.80;59.70;;;;;;5042982;28;20560;-50
2023/11/16 09:10:49;;;;;;;8.20;2.77;;;15.80;59.50;;;;;;5039229;28;20215;-49
2023/11/16 09:13:15;;;;;;;5.97;3.03;;;15.80;59.00;;;;;;5039604;28;20427;-50
2023/11/16 09:15:42;;;;;;;10.43;5.10;;;15.70;59.10;;;;;;5045628;28;20450;-52
2023/11/16 09:18:09;;;;;;;5.03;3.93;;;15.60;59.50;;;;;;5042473;28;20483;-51
2023/11/16 09:20:35;;;;;;;4.13;3.30;;;15.70;59.70;;;;;;5042850;28;20443;-52
2023/11/16 09:23:03;;;;;;;4.80;2.87;;;15.80;59.80;;;;;;5043297;28;20427;-52
2023/11/16 09:25:30;;;;;;;4.70;3.30;;;15.80;59.50;;;;;;5043509;28;20220;-50
2023/11/16 09:28:00;;;;;;;7.00;4.10;;;15.70;59.40;;;;;;5047585;28;20797;-50
2023/11/16 09:30:27;;;;;;;6.37;3.10;;;15.70;60.00;;;;;;5037515;28;20628;-48
2023/11/16 09:33:02;;;;;;;4.07;3.43;;;15.30;59.70;;;;;;5039020;28;20455;-49
2023/11/16 09:35:28;;;;;;;4.93;3.37;;;15.00;61.80;;;;;;5039752;28;21271;-50
2023/11/16 09:37:55;;;;;;;5.57;2.60;;;15.00;60.80;;;;;;5039592;28;20452;-53
2023/11/16 09:40:28;;;;;;;6.00;3.03;;;14.90;61.60;;;;;;5038536;28;20259;-49
2023/11/16 09:42:57;;;;;;;4.40;2.73;;;15.00;62.20;;;;;;5040668;28;20443;-48
2023/11/16 09:45:31;;;;;;;5.30;3.83;;;15.20;61.40;;;;;;5031920;28;20542;-49
2023/11/16 09:47:57;;;;;;;9.07;3.57;;;15.40;61.00;;;;;;5032888;28;20451;-49
2023/11/16 09:50:26;;;;;;;9.53;3.57;;;15.60;60.30;;;;;;5039372;28;20488;-49
2023/11/16 09:52:57;;;;;;;5.60;3.60;;;15.60;59.40;;;;;;5047465;28;21286;-49
2023/11/16 09:55:26;;;;;;;4.77;3.67;;;15.50;59.40;;;;;;5039838;28;20442;-48
2023/11/16 09:57:53;;;;;;;7.57;3.20;;;15.50;59.70;;;;;;5040968;28;20471;-48
2023/11/16 10:00:20;;;;;;;6.37;3.10;;;15.60;59.90;;;;;;5035875;28;20460;-50
2023/11/16 10:02:46;;;;;;;6.00;3.63;;;15.80;59.40;;;;;;5038198;28;20431;-49
2023/11/16 10:05:42;;;;;;;4.80;3.50;;;15.90;59.20;;;;;;5038359;28;20430;-50
2023/11/16 10:08:14;;;;;;;4.47;2.83;;;15.90;58.90;;;;;;5018336;28;20461;-50
2023/11/16 10:10:54;;;;;;;6.30;2.60;;;15.90;58.80;;;;;;5033559;28;21041;-51
2023/11/16 10:13:22;;;;;;;6.47;3.30;;;15.90;58.90;;;;;;5036525;28;20494;-46
2023/11/16 10:15:48;;;;;;;8.10;3.20;;;15.70;58.50;;;;;;5041297;28;20435;-48
2023/11/16 10:18:14;;;;;;;9.10;4.23;;;15.50;59.10;;;;;;5046071;28;20536;-49
2023/11/16 10:20:43;;;;;;;4.13;3.07;;;15.60;59.60;;;;;;5045182;28;20443;-51
2023/11/16 10:23:11;;;;;;;6.40;3.27;;;15.70;59.30;;;;;;5038671;28;20184;-50
2023/11/16 10:25:39;;;;;;;10.93;4.73;;;15.70;58.80;;;;;;5038378;28;20472;-46
2023/11/16 10:28:22;;;;;;;5.80;4.37;;;15.50;59.40;;;;;;5045127;28;20445;-51
2023/11/16 10:30:53;;;;;;;8.33;5.00;;;15.50;59.70;;;;;;5037278;28;20447;-49
2023/11/16 10:33:23;;;;;;;8.10;5.43;;;15.30;60.20;;;;;;5039658;28;20820;-45
2023/11/16 10:35:50;;;;;;;9.77;6.00;;;15.50;60.20;;;;;;5044522;28;20434;-49
2023/11/16 10:38:17;;;;;;;10.47;5.50;;;15.60;59.40;;;;;;5042186;28;20466;-49
2023/11/16 10:40:48;;;;;;;10.40;6.80;;;15.50;59.60;;;;;;5043151;28;20432;-49
2023/11/16 10:43:19;;;;;;;12.30;7.50;;;15.60;60.00;;;;;;5039933;28;20942;-50
2023/11/16 10:45:46;;;;;;;15.33;7.03;;;15.60;59.60;;;;;;5042567;28;20537;-48
2023/11/16 10:48:15;;;;;;;13.80;8.10;;;15.60;59.90;;;;;;5046784;28;20477;-51
2023/11/16 10:50:42;;;;;;;15.53;7.80;;;15.20;59.90;;;;;;5032825;28;20466;-49
2023/11/16 10:53:22;;;;;;;16.30;8.37;;;15.40;60.80;;;;;;5035482;28;20945;-49
2023/11/16 10:55:52;;;;;;;13.53;7.27;;;15.20;60.80;;;;;;5046114;28;20493;-50
2023/11/16 10:58:25;;;;;;;13.70;7.00;;;15.20;61.20;;;;;;5035469;28;20490;-50
2023/11/16 11:00:57;;;;;;;17.73;7.10;;;15.30;60.30;;;;;;5046121;28;20431;-49
2023/11/16 11:03:23;;;;;;;11.43;6.77;;;15.20;60.10;;;;;;5038179;28;20448;-51
2023/11/16 11:05:55;;;;;;;9.90;6.90;;;15.00;61.00;;;;;;5040675;28;20447;-49
2023/11/16 11:08:24;;;;;;;12.90;6.70;;;14.90;61.30;;;;;;5031652;28;20432;-49
2023/11/16 11:10:52;;;;;;;10.03;7.23;;;14.80;61.20;;;;;;5037627;28;20467;-50
2023/11/16 11:13:28;;;;;;;13.40;6.00;;;14.80;61.60;;;;;;5035324;28;20452;-52
2023/11/16 11:16:02;;;;;;;8.97;6.40;;;14.90;61.30;;;;;;5040880;28;20443;-50
2023/11/16 11:18:28;;;;;;;7.50;6.00;;;14.60;61.70;;;;;;5036724;28;20478;-49
2023/11/16 11:21:05;;;;;;;6.23;5.17;;;14.50;62.80;;;;;;5038834;28;20440;-50
2023/11/16 11:23:31;;;;;;;7.30;4.60;;;14.70;62.40;;;;;;5042427;28;20184;-47
2023/11/16 11:26:03;;;;;;;8.20;5.90;;;14.80;61.80;;;;;;5036134;28;20458;-49
2023/11/16 11:28:30;;;;;;;8.70;4.30;;;14.50;62.40;;;;;;5042236;28;20771;-48
2023/11/16 11:30:59;;;;;;;6.70;4.47;;;14.70;62.50;;;;;;5047676;28;20922;-52
2023/11/16 11:33:39;;;;;;;5.60;4.10;;;14.70;62.20;;;;;;5039529;28;20856;-49
2023/11/16 11:36:10;;;;;;;8.00;5.10;;;14.70;62.00;;;;;;5044738;28;20962;-49
2023/11/16 11:38:42;;;;;;;10.70;4.80;;;14.60;62.70;;;;;;5042748;28;20827;-49
2023/11/16 11:41:08;;;;;;;8.20;5.83;;;14.70;63.50;;;;;;5040428;28;20443;-48
2023/11/16 11:43:38;;;;;;;13.30;3.97;;;14.70;63.20;;;;;;5040159;28;20408;-52
2023/11/16 11:46:08;;;;;;;5.93;3.53;;;14.70;63.20;;;;;;5047537;28;20469;-50
2023/11/16 11:48:35;;;;;;;4.50;2.80;;;14.60;63.20;;;;;;5047674;28;20462;-53
2023/11/16 11:51:04;;;;;;;4.60;2.60;;;14.30;62.40;;;;;;5040410;28;20796;-52
2023/11/16 11:53:32;;;;;;;4.33;2.73;;;14.30;63.70;;;;;;5047196;28;20824;-49
2023/11/16 11:56:00;;;;;;;3.90;2.87;;;14.40;63.20;;;;;;5041499;28;21260;-49
2023/11/16 11:58:25;;;;;;;6.40;3.77;;;14.70;63.40;;;;;;5036403;28;20479;-47
2023/11/16 12:00:54;;;;;;;4.63;2.50;;;14.80;62.50;;;;;;5036943;28;20441;-47
2023/11/16 12:03:20;;;;;;;4.37;3.00;;;14.80;62.50;;;;;;5047931;28;20248;-48
2023/11/16 12:05:58;;;;;;;2.70;2.37;;;14.60;63.20;;;;;;5044376;28;20894;-48
2023/11/16 12:08:44;;;;;;;3.30;2.93;;;14.40;63.60;;;;;;5039721;28;20498;-49
2023/11/16 12:11:11;;;;;;;3.37;2.57;;;14.50;64.10;;;;;;5045131;28;20472;-49
2023/11/16 12:13:40;;;;;;;3.80;2.80;;;14.60;62.90;;;;;;5043402;28;20474;-51
2023/11/16 12:16:07;;;;;;;6.07;2.60;;;14.60;63.60;;;;;;5043573;28;20481;-47
2023/11/16 12:18:38;;;;;;;10.43;3.87;;;14.60;62.90;;;;;;5041098;28;20486;-51
2023/11/16 12:21:16;;;;;;;6.33;2.87;;;14.90;62.80;;;;;;5042246;28;20435;-50
2023/11/16 12:23:47;;;;;;;3.53;2.43;;;15.10;62.50;;;;;;5040675;28;20441;-48
2023/11/16 12:26:33;;;;;;;6.10;2.87;;;15.10;61.10;;;;;;5041565;28;20488;-49
2023/11/16 12:29:00;;;;;;;5.40;2.73;;;15.10;60.60;;;;;;5042705;28;21039;-48
2023/11/16 12:31:31;;;;;;;4.50;2.50;;;15.40;60.40;;;;;;5038897;28;21330;-48
2023/11/16 12:33:57;;;;;;;4.43;2.73;;;15.40;60.00;;;;;;5032872;28;20455;-50
2023/11/16 12:36:25;;;;;;;3.13;2.63;;;15.30;59.80;;;;;;5041342;28;20474;-51
2023/11/16 12:38:53;;;;;;;4.30;2.53;;;15.20;60.00;;;;;;5048149;28;20221;-49
2023/11/16 12:41:22;;;;;;;5.23;2.27;;;15.10;59.70;;;;;;5041958;28;20524;-48
2023/11/16 12:43:47;;;;;;;2.33;2.13;;;15.10;60.60;;;;;;5042185;28;20435;-49
2023/11/16 12:46:14;;;;;;;6.20;2.07;;;15.00;60.70;;;;;;5047256;28;20489;-52
2023/11/16 12:48:40;;;;;;;9.43;2.50;;;14.90;60.30;;;;;;5038660;28;20704;-49